sensor_id;sensor_type;location;lat;lon;timestamp;temperature;humidity
54960;DHT22;40860;51.710;8.736;2023-12-28T00:03:34;9.90;98.50
54960;DHT22;40860;51.710;8.736;2023-12-28T00:07:39;9.80;99.30
54960;DHT22;40860;51.710;8.736;2023-12-28T00:11:44;9.70;99.90
54960;DHT22;40860;51.710;8.736;2023-12-28T00:15:47;9.70;99.90
54960;DHT22;40860;51.710;8.736;2023-12-28T00:19:50;9.50;99.90
54960;DHT22;40860;51.710;8.736;2023-12-28T00:23:54;9.50;99.90
54960;DHT22;40860;51.710;8.736;2023-12-28T00:27:57;9.50;99.90
54960;DHT22;40860;51.710;8.736;2023-12-28T00:32:01;9.50;99.90
54960;DHT22;40860;51.710;8.736;2023-12-28T00:36:04;9.40;99.90
54960;DHT22;40860;51.710;8.736;2023-12-28T00:40:09;9.40;99.90
54960;DHT22;40860;51.710;8.736;2023-12-28T00:44:12;9.40;99.90
54960;DHT22;40860;51.710;8.736;2023-12-28T00:48:15;9.30;99.90
54960;DHT22;40860;51.710;8.736;2023-12-28T00:52:18;9.20;99.90
54960;DHT22;40860;51.710;8.736;2023-12-28T00:56:22;9.20;99.90
54960;DHT22;40860;51.710;8.736;2023-12-28T01:00:26;9.10;99.90
54960;DHT22;40860;51.710;8.736;2023-12-28T01:04:31;9.10;99.90
54960;DHT22;40860;51.710;8.736;2023-12-28T01:08:34;9.10;99.90
54960;DHT22;40860;51.710;8.736;2023-12-28T01:12:39;9.00;99.90
54960;DHT22;40860;51.710;8.736;2023-12-28T01:16:51;8.90;99.90
54960;DHT22;40860;51.710;8.736;2023-12-28T01:20:56;8.90;99.90
54960;DHT22;40860;51.710;8.736;2023-12-28T01:25:02;8.90;99.90
54960;DHT22;40860;51.710;8.736;2023-12-28T01:29:08;8.90;99.90
54960;DHT22;40860;51.710;8.736;2023-12-28T01:33:11;8.90;99.90
54960;DHT22;40860;51.710;8.736;2023-12-28T01:37:16;8.90;99.90
54960;DHT22;40860;51.710;8.736;2023-12-28T01:41:19;9.00;99.90
54960;DHT22;40860;51.710;8.736;2023-12-28T01:45:23;9.00;99.90
54960;DHT22;40860;51.710;8.736;2023-12-28T01:49:27;9.00;99.90
54960;DHT22;40860;51.710;8.736;2023-12-28T01:53:30;9.10;99.90
54960;DHT22;40860;51.710;8.736;2023-12-28T01:57:33;9.00;99.90
54960;DHT22;40860;51.710;8.736;2023-12-28T02:01:38;9.00;99.90
54960;DHT22;40860;51.710;8.736;2023-12-28T02:05:41;9.00;99.90
54960;DHT22;40860;51.710;8.736;2023-12-28T02:09:45;9.00;99.90
54960;DHT22;40860;51.710;8.736;2023-12-28T02:13:48;9.00;99.90
54960;DHT22;40860;51.710;8.736;2023-12-28T02:17:57;9.10;99.90
54960;DHT22;40860;51.710;8.736;2023-12-28T02:22:03;9.10;99.90
54960;DHT22;40860;51.710;8.736;2023-12-28T02:26:08;9.10;99.90
54960;DHT22;40860;51.710;8.736;2023-12-28T02:30:11;9.00;99.90
54960;DHT22;40860;51.710;8.736;2023-12-28T02:34:22;9.10;99.90
54960;DHT22;40860;51.710;8.736;2023-12-28T02:38:33;9.10;99.90
54960;DHT22;40860;51.710;8.736;2023-12-28T02:42:41;9.10;99.90
54960;DHT22;40860;51.710;8.736;2023-12-28T02:46:44;9.10;99.90
54960;DHT22;40860;51.710;8.736;2023-12-28T02:50:47;9.10;99.90
54960;DHT22;40860;51.710;8.736;2023-12-28T02:54:50;9.10;99.90
54960;DHT22;40860;51.710;8.736;2023-12-28T02:58:55;9.00;99.90
54960;DHT22;40860;51.710;8.736;2023-12-28T03:02:57;9.00;99.90
54960;DHT22;40860;51.710;8.736;2023-12-28T03:07:02;9.10;99.90
54960;DHT22;40860;51.710;8.736;2023-12-28T03:11:05;9.00;99.90
54960;DHT22;40860;51.710;8.736;2023-12-28T03:15:09;9.10;99.90
54960;DHT22;40860;51.710;8.736;2023-12-28T03:19:12;9.10;99.90
54960;DHT22;40860;51.710;8.736;2023-12-28T03:23:15;9.10;99.90
54960;DHT22;40860;51.710;8.736;2023-12-28T03:27:18;9.00;99.90
54960;DHT22;40860;51.710;8.736;2023-12-28T03:31:22;9.00;99.90
54960;DHT22;40860;51.710;8.736;2023-12-28T03:35:25;9.00;99.90
54960;DHT22;40860;51.710;8.736;2023-12-28T03:39:28;9.00;99.90
54960;DHT22;40860;51.710;8.736;2023-12-28T03:43:31;9.00;99.90
54960;DHT22;40860;51.710;8.736;2023-12-28T03:47:35;9.00;99.90
54960;DHT22;40860;51.710;8.736;2023-12-28T03:51:38;8.90;99.90
54960;DHT22;40860;51.710;8.736;2023-12-28T03:55:41;8.90;99.90
54960;DHT22;40860;51.710;8.736;2023-12-28T03:59:44;8.90;99.90
54960;DHT22;40860;51.710;8.736;2023-12-28T04:03:50;8.90;99.90
54960;DHT22;40860;51.710;8.736;2023-12-28T04:07:53;8.80;99.90
54960;DHT22;40860;51.710;8.736;2023-12-28T04:11:57;8.80;99.90
54960;DHT22;40860;51.710;8.736;2023-12-28T04:15:59;8.70;99.90
54960;DHT22;40860;51.710;8.736;2023-12-28T04:20:06;8.70;99.90
54960;DHT22;40860;51.710;8.736;2023-12-28T04:24:10;8.60;99.90
54960;DHT22;40860;51.710;8.736;2023-12-28T04:28:13;8.60;99.90
54960;DHT22;40860;51.710;8.736;2023-12-28T04:32:16;8.60;99.90
54960;DHT22;40860;51.710;8.736;2023-12-28T04:36:20;8.60;99.90
54960;DHT22;40860;51.710;8.736;2023-12-28T04:40:23;8.50;99.90
54960;DHT22;40860;51.710;8.736;2023-12-28T04:44:26;8.50;99.90
54960;DHT22;40860;51.710;8.736;2023-12-28T04:48:29;8.50;99.90
54960;DHT22;40860;51.710;8.736;2023-12-28T04:52:33;8.60;99.90
54960;DHT22;40860;51.710;8.736;2023-12-28T04:56:36;8.50;99.90
54960;DHT22;40860;51.710;8.736;2023-12-28T05:00:40;8.50;99.90
54960;DHT22;40860;51.710;8.736;2023-12-28T05:04:47;8.50;99.90
54960;DHT22;40860;51.710;8.736;2023-12-28T05:08:51;8.50;99.90
54960;DHT22;40860;51.710;8.736;2023-12-28T05:12:54;8.50;99.90
54960;DHT22;40860;51.710;8.736;2023-12-28T05:17:03;8.50;99.90
54960;DHT22;40860;51.710;8.736;2023-12-28T05:21:06;8.40;99.90
54960;DHT22;40860;51.710;8.736;2023-12-28T05:25:11;8.50;99.90
54960;DHT22;40860;51.710;8.736;2023-12-28T05:29:14;8.40;99.90
54960;DHT22;40860;51.710;8.736;2023-12-28T05:33:17;8.40;99.90
54960;DHT22;40860;51.710;8.736;2023-12-28T05:37:20;8.50;99.90
54960;DHT22;40860;51.710;8.736;2023-12-28T05:41:24;8.50;99.90
54960;DHT22;40860;51.710;8.736;2023-12-28T05:45:27;8.50;99.90
54960;DHT22;40860;51.710;8.736;2023-12-28T05:49:30;8.40;99.90
54960;DHT22;40860;51.710;8.736;2023-12-28T05:53:33;8.40;99.90
54960;DHT22;40860;51.710;8.736;2023-12-28T05:57:37;8.50;99.90
54960;DHT22;40860;51.710;8.736;2023-12-28T06:01:43;8.60;99.90
54960;DHT22;40860;51.710;8.736;2023-12-28T06:05:46;8.60;99.90
54960;DHT22;40860;51.710;8.736;2023-12-28T06:09:49;8.70;99.90
54960;DHT22;40860;51.710;8.736;2023-12-28T06:13:54;8.80;99.90
54960;DHT22;40860;51.710;8.736;2023-12-28T06:17:57;8.70;99.90
54960;DHT22;40860;51.710;8.736;2023-12-28T06:22:01;8.80;99.90
54960;DHT22;40860;51.710;8.736;2023-12-28T06:26:04;8.70;99.90
54960;DHT22;40860;51.710;8.736;2023-12-28T06:30:10;8.80;99.90
54960;DHT22;40860;51.710;8.736;2023-12-28T06:34:13;8.90;99.90
54960;DHT22;40860;51.710;8.736;2023-12-28T06:38:16;8.80;99.90
54960;DHT22;40860;51.710;8.736;2023-12-28T06:42:19;8.90;99.90
54960;DHT22;40860;51.710;8.736;2023-12-28T06:46:23;8.90;99.90
54960;DHT22;40860;51.710;8.736;2023-12-28T06:50:26;8.90;99.90
54960;DHT22;40860;51.710;8.736;2023-12-28T06:54:29;8.90;99.90
54960;DHT22;40860;51.710;8.736;2023-12-28T06:58:32;8.90;99.90
54960;DHT22;40860;51.710;8.736;2023-12-28T07:02:36;8.80;99.90
54960;DHT22;40860;51.710;8.736;2023-12-28T07:06:39;8.90;99.90
54960;DHT22;40860;51.710;8.736;2023-12-28T07:10:42;8.90;99.90
54960;DHT22;40860;51.710;8.736;2023-12-28T07:14:45;8.90;99.90
54960;DHT22;40860;51.710;8.736;2023-12-28T07:18:49;8.90;99.90
54960;DHT22;40860;51.710;8.736;2023-12-28T07:22:52;8.90;99.90
54960;DHT22;40860;51.710;8.736;2023-12-28T07:26:55;8.90;99.90
54960;DHT22;40860;51.710;8.736;2023-12-28T07:30:58;9.00;99.90
54960;DHT22;40860;51.710;8.736;2023-12-28T07:35:03;9.00;99.90
54960;DHT22;40860;51.710;8.736;2023-12-28T07:39:06;9.00;99.90
54960;DHT22;40860;51.710;8.736;2023-12-28T07:43:09;9.00;99.90
54960;DHT22;40860;51.710;8.736;2023-12-28T07:47:11;9.00;99.90
54960;DHT22;40860;51.710;8.736;2023-12-28T07:51:17;9.00;99.90
54960;DHT22;40860;51.710;8.736;2023-12-28T07:55:20;9.00;99.90
54960;DHT22;40860;51.710;8.736;2023-12-28T07:59:23;9.00;99.90
54960;DHT22;40860;51.710;8.736;2023-12-28T08:03:26;9.00;99.90
54960;DHT22;40860;51.710;8.736;2023-12-28T08:07:30;8.90;99.90
54960;DHT22;40860;51.710;8.736;2023-12-28T08:11:33;8.90;99.90
54960;DHT22;40860;51.710;8.736;2023-12-28T08:15:36;8.90;99.90
54960;DHT22;40860;51.710;8.736;2023-12-28T08:19:39;8.80;99.90
54960;DHT22;40860;51.710;8.736;2023-12-28T08:23:43;8.80;99.90
54960;DHT22;40860;51.710;8.736;2023-12-28T08:27:46;8.90;99.90
54960;DHT22;40860;51.710;8.736;2023-12-28T08:31:49;8.90;99.90
54960;DHT22;40860;51.710;8.736;2023-12-28T08:35:52;9.00;99.90
54960;DHT22;40860;51.710;8.736;2023-12-28T08:40:00;9.00;99.90
54960;DHT22;40860;51.710;8.736;2023-12-28T08:44:05;9.10;99.90
54960;DHT22;40860;51.710;8.736;2023-12-28T08:48:08;9.10;99.90
54960;DHT22;40860;51.710;8.736;2023-12-28T08:52:12;9.20;99.90
54960;DHT22;40860;51.710;8.736;2023-12-28T08:56:20;9.20;99.90
54960;DHT22;40860;51.710;8.736;2023-12-28T09:00:23;9.30;99.90
54960;DHT22;40860;51.710;8.736;2023-12-28T09:04:26;9.30;99.90
54960;DHT22;40860;51.710;8.736;2023-12-28T09:08:29;9.40;99.90
54960;DHT22;40860;51.710;8.736;2023-12-28T09:12:34;9.40;99.90
54960;DHT22;40860;51.710;8.736;2023-12-28T09:16:36;9.40;99.90
54960;DHT22;40860;51.710;8.736;2023-12-28T09:20:40;9.50;99.90
54960;DHT22;40860;51.710;8.736;2023-12-28T09:24:43;9.60;99.90
54960;DHT22;40860;51.710;8.736;2023-12-28T09:28:50;9.70;99.90
54960;DHT22;40860;51.710;8.736;2023-12-28T09:32:53;9.70;99.90
54960;DHT22;40860;51.710;8.736;2023-12-28T09:36:56;9.80;99.90
54960;DHT22;40860;51.710;8.736;2023-12-28T09:41:05;9.90;99.90
54960;DHT22;40860;51.710;8.736;2023-12-28T09:45:11;9.90;99.90
54960;DHT22;40860;51.710;8.736;2023-12-28T09:49:15;10.00;99.90
54960;DHT22;40860;51.710;8.736;2023-12-28T09:53:19;10.00;99.90
54960;DHT22;40860;51.710;8.736;2023-12-28T09:57:22;10.00;99.90
54960;DHT22;40860;51.710;8.736;2023-12-28T10:01:27;10.10;99.90
54960;DHT22;40860;51.710;8.736;2023-12-28T10:05:30;10.20;99.90
54960;DHT22;40860;51.710;8.736;2023-12-28T10:09:33;10.30;99.90
54960;DHT22;40860;51.710;8.736;2023-12-28T10:13:36;10.40;99.90
54960;DHT22;40860;51.710;8.736;2023-12-28T10:17:42;10.40;99.90
54960;DHT22;40860;51.710;8.736;2023-12-28T10:21:45;10.50;99.90
54960;DHT22;40860;51.710;8.736;2023-12-28T10:25:50;10.50;99.90
54960;DHT22;40860;51.710;8.736;2023-12-28T10:29:55;10.50;99.90
54960;DHT22;40860;51.710;8.736;2023-12-28T10:34:00;10.60;99.90
54960;DHT22;40860;51.710;8.736;2023-12-28T10:38:07;10.60;99.90
54960;DHT22;40860;51.710;8.736;2023-12-28T10:42:13;10.60;99.90
54960;DHT22;40860;51.710;8.736;2023-12-28T10:46:25;10.60;99.90
54960;DHT22;40860;51.710;8.736;2023-12-28T10:50:34;10.60;99.90
54960;DHT22;40860;51.710;8.736;2023-12-28T10:54:44;10.60;99.90
54960;DHT22;40860;51.710;8.736;2023-12-28T10:58:50;10.70;99.90
54960;DHT22;40860;51.710;8.736;2023-12-28T11:02:58;10.80;99.90
54960;DHT22;40860;51.710;8.736;2023-12-28T11:07:07;10.80;99.90
54960;DHT22;40860;51.710;8.736;2023-12-28T11:11:11;10.90;99.70
54960;DHT22;40860;51.710;8.736;2023-12-28T11:15:15;11.00;99.90
54960;DHT22;40860;51.710;8.736;2023-12-28T11:19:20;11.20;99.90
54960;DHT22;40860;51.710;8.736;2023-12-28T11:23:25;11.20;99.20
54960;DHT22;40860;51.710;8.736;2023-12-28T11:27:35;11.20;99.20
54960;DHT22;40860;51.710;8.736;2023-12-28T11:31:39;11.20;99.10
54960;DHT22;40860;51.710;8.736;2023-12-28T11:35:42;11.20;99.40
54960;DHT22;40860;51.710;8.736;2023-12-28T11:39:50;11.20;99.10
54960;DHT22;40860;51.710;8.736;2023-12-28T11:43:53;11.20;98.90
54960;DHT22;40860;51.710;8.736;2023-12-28T11:48:00;11.20;99.00
54960;DHT22;40860;51.710;8.736;2023-12-28T11:52:07;11.20;98.90
54960;DHT22;40860;51.710;8.736;2023-12-28T11:56:15;11.20;98.90
54960;DHT22;40860;51.710;8.736;2023-12-28T12:00:18;11.20;98.90
54960;DHT22;40860;51.710;8.736;2023-12-28T12:04:23;11.20;98.90
54960;DHT22;40860;51.710;8.736;2023-12-28T12:08:26;11.30;98.80
54960;DHT22;40860;51.710;8.736;2023-12-28T12:12:30;11.40;98.40
54960;DHT22;40860;51.710;8.736;2023-12-28T12:16:34;11.40;98.00
54960;DHT22;40860;51.710;8.736;2023-12-28T12:20:37;11.40;97.80
54960;DHT22;40860;51.710;8.736;2023-12-28T12:24:41;11.40;97.40
54960;DHT22;40860;51.710;8.736;2023-12-28T12:28:47;11.40;97.70
54960;DHT22;40860;51.710;8.736;2023-12-28T12:32:52;11.30;97.90
54960;DHT22;40860;51.710;8.736;2023-12-28T12:36:58;11.30;97.70
54960;DHT22;40860;51.710;8.736;2023-12-28T12:41:02;11.30;97.50
54960;DHT22;40860;51.710;8.736;2023-12-28T12:45:07;11.40;97.70
54960;DHT22;40860;51.710;8.736;2023-12-28T12:49:10;11.40;97.50
54960;DHT22;40860;51.710;8.736;2023-12-28T12:53:13;11.40;97.60
54960;DHT22;40860;51.710;8.736;2023-12-28T12:57:16;11.40;97.50
54960;DHT22;40860;51.710;8.736;2023-12-28T13:01:20;11.40;97.20
54960;DHT22;40860;51.710;8.736;2023-12-28T13:05:24;11.40;97.30
54960;DHT22;40860;51.710;8.736;2023-12-28T13:09:27;11.40;97.30
54960;DHT22;40860;51.710;8.736;2023-12-28T13:13:30;11.40;97.10
54960;DHT22;40860;51.710;8.736;2023-12-28T13:17:34;11.40;97.10
54960;DHT22;40860;51.710;8.736;2023-12-28T13:21:37;11.40;96.80
54960;DHT22;40860;51.710;8.736;2023-12-28T13:25:40;11.40;96.70
54960;DHT22;40860;51.710;8.736;2023-12-28T13:29:43;11.40;97.00
54960;DHT22;40860;51.710;8.736;2023-12-28T13:33:47;11.40;97.00
54960;DHT22;40860;51.710;8.736;2023-12-28T13:37:50;11.40;97.10
54960;DHT22;40860;51.710;8.736;2023-12-28T13:41:56;11.40;97.00
54960;DHT22;40860;51.710;8.736;2023-12-28T13:45:59;11.30;97.00
54960;DHT22;40860;51.710;8.736;2023-12-28T13:50:05;11.30;97.10
54960;DHT22;40860;51.710;8.736;2023-12-28T13:54:08;11.40;96.80
54960;DHT22;40860;51.710;8.736;2023-12-28T13:58:11;11.40;96.50
54960;DHT22;40860;51.710;8.736;2023-12-28T14:02:16;11.40;96.20
54960;DHT22;40860;51.710;8.736;2023-12-28T14:06:20;11.40;96.00
54960;DHT22;40860;51.710;8.736;2023-12-28T14:10:23;11.40;95.90
54960;DHT22;40860;51.710;8.736;2023-12-28T14:14:26;11.30;95.70
54960;DHT22;40860;51.710;8.736;2023-12-28T14:18:29;11.30;95.80
54960;DHT22;40860;51.710;8.736;2023-12-28T14:22:34;11.30;96.00
54960;DHT22;40860;51.710;8.736;2023-12-28T14:26:40;11.20;96.20
54960;DHT22;40860;51.710;8.736;2023-12-28T14:30:44;11.10;96.20
54960;DHT22;40860;51.710;8.736;2023-12-28T14:34:48;11.10;96.40
54960;DHT22;40860;51.710;8.736;2023-12-28T14:38:53;11.00;96.30
54960;DHT22;40860;51.710;8.736;2023-12-28T14:42:57;10.90;96.50
54960;DHT22;40860;51.710;8.736;2023-12-28T14:47:00;10.90;96.70
54960;DHT22;40860;51.710;8.736;2023-12-28T14:51:03;10.80;96.70
54960;DHT22;40860;51.710;8.736;2023-12-28T14:55:08;10.80;96.80
54960;DHT22;40860;51.710;8.736;2023-12-28T14:59:11;10.70;96.90
54960;DHT22;40860;51.710;8.736;2023-12-28T15:03:14;10.60;96.90
54960;DHT22;40860;51.710;8.736;2023-12-28T15:07:17;10.60;97.00
54960;DHT22;40860;51.710;8.736;2023-12-28T15:11:23;10.50;97.10
54960;DHT22;40860;51.710;8.736;2023-12-28T15:15:46;10.40;97.30
54960;DHT22;40860;51.710;8.736;2023-12-28T15:19:51;10.40;97.20
54960;DHT22;40860;51.710;8.736;2023-12-28T15:23:58;10.30;97.40
54960;DHT22;40860;51.710;8.736;2023-12-28T15:28:04;10.20;97.60
54960;DHT22;40860;51.710;8.736;2023-12-28T15:32:08;10.20;97.70
54960;DHT22;40860;51.710;8.736;2023-12-28T15:36:10;10.20;97.70
54960;DHT22;40860;51.710;8.736;2023-12-28T15:40:13;10.10;97.70
54960;DHT22;40860;51.710;8.736;2023-12-28T15:44:20;10.10;97.80
54960;DHT22;40860;51.710;8.736;2023-12-28T15:48:23;10.00;98.00
54960;DHT22;40860;51.710;8.736;2023-12-28T15:52:28;9.90;98.40
54960;DHT22;40860;51.710;8.736;2023-12-28T15:56:31;9.80;98.50
54960;DHT22;40860;51.710;8.736;2023-12-28T16:00:35;9.80;98.70
54960;DHT22;40860;51.710;8.736;2023-12-28T16:04:38;9.70;98.90
54960;DHT22;40860;51.710;8.736;2023-12-28T16:08:45;9.70;99.00
54960;DHT22;40860;51.710;8.736;2023-12-28T16:13:12;9.70;99.00
54960;DHT22;40860;51.710;8.736;2023-12-28T16:17:38;9.60;99.10
54960;DHT22;40860;51.710;8.736;2023-12-28T16:22:08;9.60;99.00
54960;DHT22;40860;51.710;8.736;2023-12-28T16:26:32;9.60;99.10
54960;DHT22;40860;51.710;8.736;2023-12-28T16:30:46;9.60;99.20
54960;DHT22;40860;51.710;8.736;2023-12-28T16:34:56;9.60;99.10
54960;DHT22;40860;51.710;8.736;2023-12-28T16:39:00;9.50;99.20
54960;DHT22;40860;51.710;8.736;2023-12-28T16:43:09;9.50;99.50
54960;DHT22;40860;51.710;8.736;2023-12-28T16:47:12;9.50;99.20
54960;DHT22;40860;51.710;8.736;2023-12-28T16:51:17;9.50;99.20
54960;DHT22;40860;51.710;8.736;2023-12-28T16:55:20;9.50;99.20
54960;DHT22;40860;51.710;8.736;2023-12-28T16:59:24;9.50;99.20
54960;DHT22;40860;51.710;8.736;2023-12-28T17:03:27;9.40;99.20
54960;DHT22;40860;51.710;8.736;2023-12-28T17:07:36;9.40;99.20
54960;DHT22;40860;51.710;8.736;2023-12-28T17:11:43;9.30;99.40
54960;DHT22;40860;51.710;8.736;2023-12-28T17:15:47;9.30;99.40
54960;DHT22;40860;51.710;8.736;2023-12-28T17:19:53;9.40;99.40
54960;DHT22;40860;51.710;8.736;2023-12-28T17:23:58;9.50;99.40
54960;DHT22;40860;51.710;8.736;2023-12-28T17:28:04;9.50;99.30
54960;DHT22;40860;51.710;8.736;2023-12-28T17:32:10;9.50;99.40
54960;DHT22;40860;51.710;8.736;2023-12-28T17:36:15;9.50;99.20
54960;DHT22;40860;51.710;8.736;2023-12-28T17:40:21;9.50;99.30
54960;DHT22;40860;51.710;8.736;2023-12-28T17:44:28;9.60;99.40
54960;DHT22;40860;51.710;8.736;2023-12-28T17:48:39;9.60;99.40
54960;DHT22;40860;51.710;8.736;2023-12-28T17:52:43;9.50;99.50
54960;DHT22;40860;51.710;8.736;2023-12-28T17:56:52;9.60;99.60
54960;DHT22;40860;51.710;8.736;2023-12-28T18:00:57;9.60;99.70
54960;DHT22;40860;51.710;8.736;2023-12-28T18:05:00;9.60;99.80
54960;DHT22;40860;51.710;8.736;2023-12-28T18:09:03;9.60;99.80
54960;DHT22;40860;51.710;8.736;2023-12-28T18:13:08;9.60;99.90
54960;DHT22;40860;51.710;8.736;2023-12-28T18:17:18;9.60;99.70
54960;DHT22;40860;51.710;8.736;2023-12-28T18:21:21;9.60;99.80
54960;DHT22;40860;51.710;8.736;2023-12-28T18:25:24;9.60;99.60
54960;DHT22;40860;51.710;8.736;2023-12-28T18:29:28;9.60;99.60
54960;DHT22;40860;51.710;8.736;2023-12-28T18:33:31;9.70;99.50
54960;DHT22;40860;51.710;8.736;2023-12-28T18:37:34;9.70;99.50
54960;DHT22;40860;51.710;8.736;2023-12-28T18:41:38;9.80;99.40
54960;DHT22;40860;51.710;8.736;2023-12-28T18:45:43;9.80;99.50
54960;DHT22;40860;51.710;8.736;2023-12-28T18:49:47;9.80;99.50
54960;DHT22;40860;51.710;8.736;2023-12-28T18:53:51;9.80;99.50
54960;DHT22;40860;51.710;8.736;2023-12-28T18:57:54;9.80;99.40
54960;DHT22;40860;51.710;8.736;2023-12-28T19:01:59;9.80;99.50
54960;DHT22;40860;51.710;8.736;2023-12-28T19:06:02;9.70;99.60
54960;DHT22;40860;51.710;8.736;2023-12-28T19:10:05;9.80;99.60
54960;DHT22;40860;51.710;8.736;2023-12-28T19:14:08;9.70;99.60
54960;DHT22;40860;51.710;8.736;2023-12-28T19:18:13;9.60;99.60
54960;DHT22;40860;51.710;8.736;2023-12-28T19:22:18;9.60;99.70
54960;DHT22;40860;51.710;8.736;2023-12-28T19:26:21;9.50;99.90
54960;DHT22;40860;51.710;8.736;2023-12-28T19:30:24;9.50;99.90
54960;DHT22;40860;51.710;8.736;2023-12-28T19:34:29;9.40;99.90
54960;DHT22;40860;51.710;8.736;2023-12-28T19:38:32;9.40;99.90
54960;DHT22;40860;51.710;8.736;2023-12-28T19:42:35;9.30;99.90
54960;DHT22;40860;51.710;8.736;2023-12-28T19:46:38;9.30;99.90
54960;DHT22;40860;51.710;8.736;2023-12-28T19:50:43;9.30;99.90
54960;DHT22;40860;51.710;8.736;2023-12-28T19:54:46;9.40;99.70
54960;DHT22;40860;51.710;8.736;2023-12-28T19:58:49;9.40;99.60
54960;DHT22;40860;51.710;8.736;2023-12-28T20:02:52;9.40;99.50
54960;DHT22;40860;51.710;8.736;2023-12-28T20:06:56;9.50;99.20
54960;DHT22;40860;51.710;8.736;2023-12-28T20:11:00;9.50;99.10
54960;DHT22;40860;51.710;8.736;2023-12-28T20:15:03;9.60;99.00
54960;DHT22;40860;51.710;8.736;2023-12-28T20:19:11;9.60;98.90
54960;DHT22;40860;51.710;8.736;2023-12-28T20:23:15;9.70;98.70
54960;DHT22;40860;51.710;8.736;2023-12-28T20:27:18;9.70;98.60
54960;DHT22;40860;51.710;8.736;2023-12-28T20:31:22;9.80;98.50
54960;DHT22;40860;51.710;8.736;2023-12-28T20:35:25;9.80;98.40
54960;DHT22;40860;51.710;8.736;2023-12-28T20:39:30;9.80;98.50
54960;DHT22;40860;51.710;8.736;2023-12-28T20:43:33;9.80;98.40
54960;DHT22;40860;51.710;8.736;2023-12-28T20:47:36;9.80;98.50
54960;DHT22;40860;51.710;8.736;2023-12-28T20:51:39;9.70;98.70
54960;DHT22;40860;51.710;8.736;2023-12-28T20:55:44;9.70;98.70
54960;DHT22;40860;51.710;8.736;2023-12-28T20:59:47;9.70;98.70
54960;DHT22;40860;51.710;8.736;2023-12-28T21:03:52;9.70;98.70
54960;DHT22;40860;51.710;8.736;2023-12-28T21:07:55;9.70;98.80
54960;DHT22;40860;51.710;8.736;2023-12-28T21:12:00;9.80;98.70
54960;DHT22;40860;51.710;8.736;2023-12-28T21:16:04;9.80;98.70
54960;DHT22;40860;51.710;8.736;2023-12-28T21:20:08;9.80;98.50
54960;DHT22;40860;51.710;8.736;2023-12-28T21:24:12;9.80;98.60
54960;DHT22;40860;51.710;8.736;2023-12-28T21:28:16;9.80;98.60
54960;DHT22;40860;51.710;8.736;2023-12-28T21:32:19;9.70;98.50
54960;DHT22;40860;51.710;8.736;2023-12-28T21:36:22;9.70;98.60
54960;DHT22;40860;51.710;8.736;2023-12-28T21:40:27;9.70;98.60
54960;DHT22;40860;51.710;8.736;2023-12-28T21:44:31;9.70;98.70
54960;DHT22;40860;51.710;8.736;2023-12-28T21:48:34;9.70;98.60
54960;DHT22;40860;51.710;8.736;2023-12-28T21:52:37;9.70;98.70
54960;DHT22;40860;51.710;8.736;2023-12-28T21:56:40;9.60;98.70
54960;DHT22;40860;51.710;8.736;2023-12-28T22:00:45;9.60;98.80
54960;DHT22;40860;51.710;8.736;2023-12-28T22:04:48;9.60;98.80
54960;DHT22;40860;51.710;8.736;2023-12-28T22:08:51;9.70;98.70
54960;DHT22;40860;51.710;8.736;2023-12-28T22:12:55;9.70;98.80
54960;DHT22;40860;51.710;8.736;2023-12-28T22:16:59;9.70;98.60
54960;DHT22;40860;51.710;8.736;2023-12-28T22:21:02;9.70;98.30
54960;DHT22;40860;51.710;8.736;2023-12-28T22:25:05;9.80;98.40
54960;DHT22;40860;51.710;8.736;2023-12-28T22:29:08;9.80;98.30
54960;DHT22;40860;51.710;8.736;2023-12-28T22:33:15;9.80;98.40
54960;DHT22;40860;51.710;8.736;2023-12-28T22:37:19;9.70;98.30
54960;DHT22;40860;51.710;8.736;2023-12-28T22:41:21;9.70;98.20
54960;DHT22;40860;51.710;8.736;2023-12-28T22:45:24;9.70;98.20
54960;DHT22;40860;51.710;8.736;2023-12-28T22:49:28;9.80;98.10
54960;DHT22;40860;51.710;8.736;2023-12-28T22:53:32;9.80;98.20
54960;DHT22;40860;51.710;8.736;2023-12-28T22:57:34;9.70;98.10
54960;DHT22;40860;51.710;8.736;2023-12-28T23:01:37;9.70;98.30
54960;DHT22;40860;51.710;8.736;2023-12-28T23:05:42;9.70;98.30
54960;DHT22;40860;51.710;8.736;2023-12-28T23:09:45;9.60;98.30
54960;DHT22;40860;51.710;8.736;2023-12-28T23:13:50;9.60;98.40
54960;DHT22;40860;51.710;8.736;2023-12-28T23:17:53;9.60;98.90
54960;DHT22;40860;51.710;8.736;2023-12-28T23:21:57;9.60;98.80
54960;DHT22;40860;51.710;8.736;2023-12-28T23:26:00;9.60;98.80
54960;DHT22;40860;51.710;8.736;2023-12-28T23:30:04;9.60;98.80
54960;DHT22;40860;51.710;8.736;2023-12-28T23:34:08;9.50;98.90
54960;DHT22;40860;51.710;8.736;2023-12-28T23:38:27;9.50;99.00
54960;DHT22;40860;51.710;8.736;2023-12-28T23:42:31;9.40;99.10
54960;DHT22;40860;51.710;8.736;2023-12-28T23:46:36;9.40;99.10
54960;DHT22;40860;51.710;8.736;2023-12-28T23:50:39;9.50;99.10
54960;DHT22;40860;51.710;8.736;2023-12-28T23:54:45;9.50;99.20
54960;DHT22;40860;51.710;8.736;2023-12-28T23:58:48;9.50;99.20
